Latest Coastal Weather Observations for Cape Flattery

IDQ60701

Issued at 11:25 am EST Saturday 29 November 2014 (issued every 10 minutes, with the page automatically refreshed every 10 minutes)

About coastal observations | Map of coastal stations | Coastal observations for QLD | Marine services | Other Formats
Station Details ID: 031213 Name: CAPE FLATTERY Lat: -14.97 Lon: 145.31 Height: 18.5 m
Data from the previous 72 hours. | See also: Recent months at Cape Flattery
Date/Time
EST
Temp

°C
Wind Pressure Rain
since 9am
mm
Weather Cloud Vis
km
Sea
Height
m
Swell
Dir
 
Speed
knots
Gust
knots
hPa Trend Height
m
Period
s
Dir
29/11:00am 29.5 SE 15 22 1011.2 - 0.0 - - - - - - -
29/10:30am 30.3 SE 14 19 1011.4 - 0.0 - - - - - - -
29/10:00am 29.9 SE 15 19 1011.5 - 0.0 - - - - - - -
29/09:30am 29.5 SE 13 18 1011.7 - 0.0 - - - - - - -
29/09:00am 29.5 SE 13 17 1011.7 - 0.0 - - - - - - -
29/08:30am 28.8 SE 13 19 1011.5 - 0.0 - - - - - - -
29/08:00am 28.5 ESE 13 19 1011.3 - 0.0 - - - - - - -
29/07:30am 27.8 SE 15 19 1011.0 - 0.0 - - - - - - -
29/07:00am 27.4 ESE 12 16 1010.7 - 0.0 - - - - - - -
29/06:30am 26.6 SE 10 13 1010.7 - 0.0 - - - - - - -
29/06:00am 25.7 ESE 9 14 1010.2 - 0.0 - - - - - - -
29/05:30am 25.7 ESE 11 16 1009.9 - 0.0 - - - - - - -
29/05:00am 25.7 ESE 10 13 1009.6 - 0.0 - - - - - - -
29/04:30am 25.6 SE 12 16 1009.2 - 0.0 - - - - - - -
29/04:00am 25.9 SE 10 16 1009.1 - 0.0 - - - - - - -
29/03:30am 25.7 SE 12 16 1009.2 - 0.0 - - - - - - -
29/03:00am 25.9 ESE 12 17 1009.2 - 0.0 - - - - - - -
29/02:30am 25.7 ESE 10 15 1009.2 - 0.0 - - - - - - -
29/02:00am 25.9 ESE 14 17 1009.3 - 0.0 - - - - - - -
29/01:30am 26.1 SE 14 19 1009.6 - 0.0 - - - - - - -
29/01:00am 26.0 SE 13 17 1009.9 - 0.0 - - - - - - -
29/12:30am 26.0 SE 14 20 1010.3 - 0.0 - - - - - - -
29/12:00am 26.1 SE 13 18 1010.7 - 0.0 - - - - - - -
 
Date/Time
EST
Temp

°C
Wind Pressure Rain
since 9am
mm
Weather Cloud Vis
km
Sea
Height
m
Swell
Dir
 
Speed
knots
Gust
knots
hPa Trend Height
m
Period
s
Dir
28/11:30pm 26.3 SE 15 20 1011.0 - 0.0 - - - - - - -
28/11:00pm 26.4 SE 15 21 1011.2 - 0.0 - - - - - - -
28/10:30pm 26.4 ESE 14 19 1011.2 - 0.0 - - - - - - -
28/10:00pm 26.6 SE 15 20 1011.2 - 0.0 - - - - - - -
28/09:30pm 26.4 ESE 12 19 1011.0 - 0.0 - - - - - - -
28/09:00pm 26.5 ESE 12 16 1011.1 - 0.0 - - - - - - -
28/08:30pm 26.7 ESE 13 17 1011.1 - 0.0 - - - - - - -
28/08:00pm 26.8 SE 14 19 1010.9 - 0.0 - - - - - - -
28/07:30pm 26.8 SE 12 17 1010.7 - 0.0 - - - - - - -
28/07:00pm 26.8 ESE 10 16 1010.6 - 0.0 - - - - - - -
28/06:30pm 27.0 SE 12 17 1010.6 - 0.0 - - - - - - -
28/06:00pm 27.4 SE 14 19 1010.4 - 0.0 - - - - - - -
28/05:30pm 27.6 SE 14 19 1010.1 - 0.0 - - - - - - -
28/05:00pm 27.9 SE 15 20 1009.8 - 0.0 - - - - - - -
28/04:30pm 29.1 SE 15 19 1009.6 - 0.0 - - - - - - -
28/04:00pm 29.4 ESE 15 20 1009.5 - 0.0 - - - - - - -
28/03:30pm 29.8 SE 16 20 1009.4 - 0.0 - - - - - - -
28/03:00pm 29.8 SE 15 19 1009.6 - 0.0 - - - - - - -
28/02:30pm 29.4 ESE 14 19 1009.8 - 0.0 - - - - - - -
28/02:00pm 30.4 ESE 15 21 1010.0 - 0.0 - - - - - - -
28/01:30pm 30.9 SE 15 20 1010.5 - 0.0 - - - - - - -
28/01:00pm 31.7 SE 14 17 1010.7 - 0.0 - - - - - - -
28/12:30pm 31.1 SE 14 20 1010.9 - 0.0 - - - - - - -
28/12:00pm 31.4 SE 14 19 1011.1 - 0.0 - - - - - - -
28/11:30am 30.1 SE 14 19 1011.4 - 0.0 - - - - - - -
28/11:00am 30.1 SE 14 20 1011.6 - 0.0 - - - - - - -
28/10:30am 30.7 SE 15 20 1011.9 - 0.0 - - - - - - -
28/10:00am 30.0 SE 14 19 1012.1 - 0.0 - - - - - - -
28/09:30am 28.7 SE 13 19 1012.1 - 0.0 - - - - - - -
28/09:00am 28.1 SE 14 19 1012.2 - 0.0 - - - - - - -
28/08:30am 29.2 SE 15 19 1011.8 - 0.0 - - - - - - -
28/08:00am 28.9 ESE 14 21 1011.6 - 0.0 - - - - - - -
28/07:30am 28.0 ESE 13 19 1011.3 - 0.0 - - - - - - -
28/07:00am 27.6 ESE 13 18 1011.0 - 0.0 - - - - - - -
28/06:30am 26.5 SE 14 19 1010.8 - 0.0 - - - - - - -
28/06:00am 25.9 ESE 12 16 1010.5 - 0.0 - - - - - - -
28/05:30am 25.8 ESE 12 17 1010.3 - 0.0 - - - - - - -
28/05:00am 25.8 ESE 12 17 1010.0 - 0.0 - - - - - - -
28/04:30am 25.8 ESE 12 18 1009.9 - 0.0 - - - - - - -
28/04:00am 25.6 ESE 11 15 1010.1 - 0.0 - - - - - - -
28/03:30am 25.6 ESE 11 16 1010.0 - 0.0 - - - - - - -
28/03:00am 25.7 ESE 12 17 1009.9 - 0.0 - - - - - - -
28/02:30am 25.8 ESE 12 16 1009.9 - 0.0 - - - - - - -
28/02:00am 25.5 ESE 9 13 1009.9 - 0.0 - - - - - - -
28/01:30am 25.9 SE 12 17 1010.2 - 0.0 - - - - - - -
28/01:00am 26.0 SE 14 18 1010.5 - 0.0 - - - - - - -
28/12:30am 26.1 SE 13 17 1010.9 - 0.0 - - - - - - -
28/12:00am 25.9 SE 11 17 1011.2 - 0.0 - - - - - - -
 
Date/Time
EST
Temp

°C
Wind Pressure Rain
since 9am
mm
Weather Cloud Vis
km
Sea
Height
m
Swell
Dir
 
Speed
knots
Gust
knots
hPa Trend Height
m
Period
s
Dir
27/11:30pm 26.2 ESE 14 19 1011.4 - 0.0 - - - - - - -
27/11:00pm 26.2 SE 14 20 1011.4 - 0.0 - - - - - - -
27/10:30pm 26.1 ESE 12 18 1011.4 - 0.0 - - - - - - -
27/10:00pm 26.3 SE 14 19 1011.3 - 0.0 - - - - - - -
27/09:30pm 26.3 SE 15 21 1011.1 - 0.0 - - - - - - -
27/09:00pm 26.2 SE 15 19 1010.9 - 0.0 - - - - - - -
27/08:30pm 26.4 SE 16 20 1010.7 - 0.0 - - - - - - -
27/08:00pm 26.3 SE 15 21 1010.6 - 0.0 - - - - - - -
27/07:30pm 26.4 SE 14 21 1010.3 - 0.0 - - - - - - -
27/07:00pm 26.6 SE 14 18 1010.1 - 0.0 - - - - - - -
27/06:30pm 26.8 SE 14 21 1010.0 - 0.0 - - - - - - -
27/06:00pm 27.5 SE 15 21 1009.9 - 0.0 - - - - - - -
27/05:30pm 28.3 SE 16 21 1009.7 - 0.0 - - - - - - -
27/05:00pm 28.9 SE 16 22 1009.6 - 0.0 - - - - - - -
27/04:30pm 29.3 SE 16 22 1009.3 - 0.0 - - - - - - -
27/04:00pm 30.2 SE 16 22 1009.2 - 0.0 - - - - - - -
27/03:30pm 30.4 SSE 17 23 1009.1 - 0.0 - - - - - - -
27/03:00pm 30.9 SE 15 21 1009.3 - 0.0 - - - - - - -
27/02:30pm 30.7 SE 15 22 1009.6 - 0.0 - - - - - - -
27/02:00pm 30.8 SE 15 19 1009.9 - 0.0 - - - - - - -
27/01:30pm 30.8 SE 16 22 1010.3 - 0.0 - - - - - - -
27/01:00pm 30.7 SE 15 20 1010.7 - 0.0 - - - - - - -
27/12:30pm 30.4 SE 14 19 1011.0 - 0.0 - - - - - - -
27/12:00pm 31.3 ESE 15 21 1011.4 - 0.0 - - - - - - -
27/11:30am 30.7 SE 15 20 1011.7 - 0.0 - - - - - - -
27/11:00am 30.5 SE 15 21 1011.7 - 0.0 - - - - - - -
27/10:30am 30.0 ESE 15 20 1012.0 - 0.0 - - - - - - -
27/10:00am 30.1 SE 16 20 1012.0 - 0.0 - - - - - - -
27/09:30am 30.1 ESE 15 21 1011.9 - 0.0 - - - - - - -
27/09:00am 28.8 ESE 14 20 1012.1 - 0.0 - - - - - - -
27/08:30am 27.9 ESE 15 21 1012.0 - 0.0 - - - - - - -
27/08:00am 28.7 ESE 13 17 1011.7 - 0.0 - - - - - - -
27/07:30am 28.0 ESE 11 16 1011.7 - 0.0 - - - - - - -
27/07:00am 27.7 ESE 13 18 1011.7 - 0.0 - - - - - - -
27/06:30am 26.9 ESE 12 18 1011.7 - 0.0 - - - - - - -
27/06:00am 26.1 ESE 11 15 1011.4 - 0.0 - - - - - - -
27/05:30am 26.2 ESE 12 18 1010.9 - 0.0 - - - - - - -
27/05:00am 26.1 ESE 12 17 1010.3 - 0.0 - - - - - - -
27/04:30am 26.2 ESE 12 19 1010.0 - 0.0 - - - - - - -
27/04:00am 25.9 ESE 11 15 1009.9 - 0.0 - - - - - - -
27/03:30am 25.6 ESE 9 13 1009.8 - 0.0 - - - - - - -
27/03:00am 25.7 ESE 10 14 1009.9 - 0.0 - - - - - - -
27/02:30am 25.4 ESE 9 13 1010.0 - 0.0 - - - - - - -
27/02:00am 26.6 ESE 10 16 1010.0 - 0.0 - - - - - - -
27/01:30am 26.6 ESE 13 17 1009.9 - 0.0 - - - - - - -
27/01:00am 26.5 ESE 11 16 1010.2 - 0.0 - - - - - - -
27/12:30am 26.6 ESE 13 18 1010.4 - 0.0 - - - - - - -
27/12:00am 26.7 ESE 12 18 1010.7 - 0.0 - - - - - - -
 
Date/Time
EST
Temp

°C
Wind Pressure Rain
since 9am
mm
Weather Cloud Vis
km
Sea
Height
m
Swell
Dir
 
Speed
knots
Gust
knots
hPa Trend Height
m
Period
s
Dir
26/11:30pm 26.9 ESE 12 17 1011.1 - 0.0 - - - - - - -
26/11:00pm 26.8 SE 13 18 1011.3 - 0.0 - - - - - - -
26/10:30pm 26.8 SE 14 19 1011.3 - 0.0 - - - - - - -
26/10:00pm 26.8 ESE 13 17 1011.4 - 0.0 - - - - - - -
26/09:30pm 26.8 ESE 14 18 1011.1 - 0.0 - - - - - - -
26/09:00pm 26.8 ESE 13 19 1010.8 - 0.0 - - - - - - -
26/08:30pm 26.9 ESE 12 16 1010.9 - 0.0 - - - - - - -
26/08:00pm 26.9 ESE 12 17 1010.7 - 0.0 - - - - - - -
26/07:30pm 27.1 SE 14 19 1010.4 - 0.0 - - - - - - -
26/07:00pm 27.1 SE 14 21 1010.1 - 0.0 - - - - - - -
26/06:30pm 27.2 SE 15 21 1009.8 - 0.0 - - - - - - -
26/06:00pm 27.5 SE 13 18 1009.8 - 0.0 - - - - - - -
26/05:30pm 27.8 SE 14 19 1009.8 - 0.0 - - - - - - -
26/05:00pm 28.0 SE 15 20 1009.6 - 0.0 - - - - - - -
26/04:30pm 29.2 SE 15 19 1009.4 - 0.0 - - - - - - -
26/04:00pm 30.1 SE 15 19 1009.2 - 0.0 - - - - - - -
26/03:30pm 29.7 SE 16 21 1009.3 - 0.0 - - - - - - -
26/03:00pm 30.2 SE 16 20 1009.3 - 0.0 - - - - - - -
26/02:30pm 30.6 SE 14 19 1009.3 - 0.0 - - - - - - -
26/02:00pm 30.6 ESE 14 20 1009.5 - 0.0 - - - - - - -
26/01:30pm 30.8 ESE 15 20 1009.8 - 0.0 - - - - - - -
26/01:00pm 31.0 ESE 15 22 1010.1 - 0.0 - - - - - - -
26/12:30pm 30.6 ESE 15 20 1010.4 - 0.0 - - - - - - -
26/12:00pm 30.1 SE 16 21 1010.6 - 0.0 - - - - - - -
26/11:30am 31.5 ESE 14 19 1011.0 - 0.0 - - - - - - -

Other Formats:

Comma delimited format used in spreadsheet applications
http://www.bom.gov.au/fwo/IDQ60701/IDQ60701.94188.axf

JavaScript Object Notation format (JSON) in row-major order
http://www.bom.gov.au/fwo/IDQ60701/IDQ60701.94188.json